CSCL Genoa — V2OH2 — position and weather

sailwx.info

Track history (hours):
 
Tides and Currents Weather Stations Pressure Air Temp Water Temp Dewpoint Dewpoint Depression Visibility Wind Speed Wind Dir Waves Ship Positions

CSCL Genoa

Last reported at 2014-Dec-14 17:21 UTC. Time now 2014-Dec-20 13:43 UTC.
Position S 29°31' E 031°40'.

Length 208 m; beam 32 m; draft 11.5 m.

Type: Ship. MMSI: 304528000.

Date/timePositionNaut miles runAvg speedWind from/ knotsBaromVisibWave heightAir tempDewpointWater temp
2014-Dec-14 17:21S 29°31' E 031°40'1214.3
2014-Dec-14 16:33S 29°38' E 031°29'1414.4
2014-Dec-14 15:34S 29°47' E 031°16'1312.9
2014-Dec-14 14:33S 29°53' E 031°03'1 1.0
2014-Dec-14 13:29S 29°53' E 031°02'0 0.0
2014-Dec-14 12:29S 29°53' E 031°02'0 0.0
2014-Dec-14 11:29S 29°53' E 031°02'0 0.0
2014-Dec-14 10:29S 29°53' E 031°02'0 0.0
2014-Dec-14 09:29S 29°53' E 031°02'0 0.0
2014-Dec-14 08:29S 29°53' E 031°02'0 0.0
2014-Dec-14 07:23S 29°53' E 031°02'0 0.0
2014-Dec-14 06:29S 29°53' E 031°02'0 0.0
2014-Dec-14 05:29S 29°53' E 031°02'0 0.0
2014-Dec-14 04:29S 29°53' E 031°02'0 0.0
2014-Dec-14 03:33S 29°53' E 031°02'0 0.0
2014-Dec-14 02:33S 29°53' E 031°02'0 0.0
2014-Dec-14 00:33S 29°53' E 031°02'0 0.0
2014-Dec-13 23:33S 29°53' E 031°02'0 0.0
2014-Dec-13 22:33S 29°53' E 031°02'0 0.2
2014-Dec-13 20:33S 29°52' E 031°02'6 5.9
2014-Dec-13 19:33S 29°48' E 031°07'4 3.7
2014-Dec-13 18:32S 29°44' E 031°08'0 0.0
2014-Dec-13 17:32S 29°44' E 031°08'0 0.0
2014-Dec-13 16:32S 29°44' E 031°08'0 0.0
2014-Dec-13 15:32S 29°44' E 031°08'0 0.0
2014-Dec-13 14:32S 29°44' E 031°08'0 0.0
2014-Dec-13 13:32S 29°44' E 031°08'0 0.0
2014-Dec-13 12:32S 29°44' E 031°08'0 0.0
2014-Dec-13 11:32S 29°44' E 031°08'0 0.0
2014-Dec-13 10:32S 29°44' E 031°08'0 0.0
2014-Dec-13 09:32S 29°44' E 031°08'0 0.0
2014-Dec-13 08:32S 29°44' E 031°08'0 0.0
2014-Dec-13 07:32S 29°44' E 031°08'0 0.0
2014-Dec-13 06:32S 29°44' E 031°08'0 0.0
2014-Dec-13 05:32S 29°44' E 031°08'0 0.0
2014-Dec-13 04:32S 29°44' E 031°08'0 0.0
2014-Dec-13 03:32S 29°44' E 031°08'0 0.0
2014-Dec-13 02:32S 29°44' E 031°08'0 0.0
2014-Dec-13 01:32S 29°44' E 031°08'0 0.0
2014-Dec-13 00:32S 29°44' E 031°08'0 0.0
2014-Dec-12 23:32S 29°44' E 031°08'0 0.0
2014-Dec-12 22:32S 29°44' E 031°08'0 0.0
2014-Dec-12 21:32S 29°44' E 031°08'0 0.0
2014-Dec-12 20:29S 29°44' E 031°08'0 0.0
2014-Dec-12 19:29S 29°44' E 031°08'0 0.1
2014-Dec-12 18:29S 29°44' E 031°08'0 0.0
2014-Dec-12 17:29S 29°44' E 031°08'0 0.0
2014-Dec-12 16:29S 29°44' E 031°08'0 0.0
2014-Dec-12 15:29S 29°44' E 031°08'0 0.0
2014-Dec-12 14:29S 29°44' E 031°08'0 0.0
2014-Dec-12 13:29S 29°44' E 031°08'0 0.1
2014-Dec-12 12:29S 29°44' E 031°08'0 0.2
2014-Dec-12 11:29S 29°45' E 031°08'0 0.0
2014-Dec-12 10:29S 29°45' E 031°08'0 0.2
2014-Dec-12 09:33S 29°45' E 031°08'5 5.2
2014-Dec-12 08:33S 29°50' E 031°08'1111.2
2014-Dec-12 07:33S 30°00' E 031°04'1211.8
2014-Dec-12 06:33S 30°11' E 030°57'31610.8
2014-Dec-11 01:14S 33°52' E 026°31'913.0
2014-Dec-11 00:32S 33°56' E 026°22'38711.4
2014-Dec-09 14:29S 34°28' E 018°36'3116.0
2014-Dec-09 12:33S 34°06' E 018°09'1816.9
2014-Dec-09 11:31S 33°50' E 017°59'  
Track history (hours):
 
Tides and Currents Weather Stations Pressure Air Temp Water Temp Dewpoint Dewpoint Depression Visibility Wind Speed Wind Dir Waves Ship Positions

CSCL Genoa

Last reported at 2014-Dec-14 17:21 UTC. Time now 2014-Dec-20 13:43 UTC.
Position S 29°31' E 031°40'.

Length 208 m; beam 32 m; draft 11.5 m.

Type: Ship. MMSI: 304528000.

Date/timePositionNaut miles runAvg speedWind from/ knotsBaromVisibWave heightAir tempDewpointWater temp
2014-Dec-14 17:21S 29°31' E 031°40'1214.3
2014-Dec-14 16:33S 29°38' E 031°29'1414.4
2014-Dec-14 15:34S 29°47' E 031°16'1312.9
2014-Dec-14 14:33S 29°53' E 031°03'1 1.0
2014-Dec-14 13:29S 29°53' E 031°02'0 0.0
2014-Dec-14 12:29S 29°53' E 031°02'0 0.0
2014-Dec-14 11:29S 29°53' E 031°02'0 0.0
2014-Dec-14 10:29S 29°53' E 031°02'0 0.0
2014-Dec-14 09:29S 29°53' E 031°02'0 0.0
2014-Dec-14 08:29S 29°53' E 031°02'0 0.0
2014-Dec-14 07:23S 29°53' E 031°02'0 0.0
2014-Dec-14 06:29S 29°53' E 031°02'0 0.0
2014-Dec-14 05:29S 29°53' E 031°02'0 0.0
2014-Dec-14 04:29S 29°53' E 031°02'0 0.0
2014-Dec-14 03:33S 29°53' E 031°02'0 0.0
2014-Dec-14 02:33S 29°53' E 031°02'0 0.0
2014-Dec-14 00:33S 29°53' E 031°02'0 0.0
2014-Dec-13 23:33S 29°53' E 031°02'0 0.0
2014-Dec-13 22:33S 29°53' E 031°02'0 0.2
2014-Dec-13 20:33S 29°52' E 031°02'6 5.9
2014-Dec-13 19:33S 29°48' E 031°07'4 3.7
2014-Dec-13 18:32S 29°44' E 031°08'0 0.0
2014-Dec-13 17:32S 29°44' E 031°08'0 0.0
2014-Dec-13 16:32S 29°44' E 031°08'0 0.0
2014-Dec-13 15:32S 29°44' E 031°08'0 0.0
2014-Dec-13 14:32S 29°44' E 031°08'0 0.0
2014-Dec-13 13:32S 29°44' E 031°08'0 0.0
2014-Dec-13 12:32S 29°44' E 031°08'0 0.0
2014-Dec-13 11:32S 29°44' E 031°08'0 0.0
2014-Dec-13 10:32S 29°44' E 031°08'0 0.0
2014-Dec-13 09:32S 29°44' E 031°08'0 0.0
2014-Dec-13 08:32S 29°44' E 031°08'0 0.0
2014-Dec-13 07:32S 29°44' E 031°08'0 0.0
2014-Dec-13 06:32S 29°44' E 031°08'0 0.0
2014-Dec-13 05:32S 29°44' E 031°08'0 0.0
2014-Dec-13 04:32S 29°44' E 031°08'0 0.0
2014-Dec-13 03:32S 29°44' E 031°08'0 0.0
2014-Dec-13 02:32S 29°44' E 031°08'0 0.0
2014-Dec-13 01:32S 29°44' E 031°08'0 0.0
2014-Dec-13 00:32S 29°44' E 031°08'0 0.0
2014-Dec-12 23:32S 29°44' E 031°08'0 0.0
2014-Dec-12 22:32S 29°44' E 031°08'0 0.0
2014-Dec-12 21:32S 29°44' E 031°08'0 0.0
2014-Dec-12 20:29S 29°44' E 031°08'0 0.0
2014-Dec-12 19:29S 29°44' E 031°08'0 0.1
2014-Dec-12 18:29S 29°44' E 031°08'0 0.0
2014-Dec-12 17:29S 29°44' E 031°08'0 0.0
2014-Dec-12 16:29S 29°44' E 031°08'0 0.0
2014-Dec-12 15:29S 29°44' E 031°08'0 0.0
2014-Dec-12 14:29S 29°44' E 031°08'0 0.0
2014-Dec-12 13:29S 29°44' E 031°08'0 0.1
2014-Dec-12 12:29S 29°44' E 031°08'0 0.2
2014-Dec-12 11:29S 29°45' E 031°08'0 0.0
2014-Dec-12 10:29S 29°45' E 031°08'0 0.2
2014-Dec-12 09:33S 29°45' E 031°08'5 5.2
2014-Dec-12 08:33S 29°50' E 031°08'1111.2
2014-Dec-12 07:33S 30°00' E 031°04'1211.8
2014-Dec-12 06:33S 30°11' E 030°57'31610.8
2014-Dec-11 01:14S 33°52' E 026°31'913.0
2014-Dec-11 00:32S 33°56' E 026°22'38711.4
2014-Dec-09 14:29S 34°28' E 018°36'3116.0
2014-Dec-09 12:33S 34°06' E 018°09'1816.9
2014-Dec-09 11:31S 33°50' E 017°59'  

Dump ship's entire track history